sensor_id;sensor_type;location;lat;lon;timestamp;pressure;altitude;pressure_sealevel;temperature;humidity
55347;BME280;41218;55.700;38.270;2023-04-19T00:04:28;100776.91;;;8.71;47.81
55347;BME280;41218;55.700;38.270;2023-04-19T00:09:29;100770.59;;;8.70;47.45
55347;BME280;41218;55.700;38.270;2023-04-19T00:14:29;100776.44;;;8.69;47.45
55347;BME280;41218;55.700;38.270;2023-04-19T00:19:30;100779.84;;;8.66;47.08
55347;BME280;41218;55.700;38.270;2023-04-19T00:24:30;100785.72;;;8.64;46.89
55347;BME280;41218;55.700;38.270;2023-04-19T00:29:31;100786.53;;;8.65;46.54
55347;BME280;41218;55.700;38.270;2023-04-19T00:34:32;100789.28;;;8.65;46.72
55347;BME280;41218;55.700;38.270;2023-04-19T00:39:32;100783.59;;;8.61;46.76
55347;BME280;41218;55.700;38.270;2023-04-19T00:44:33;100787.38;;;8.56;46.29
55347;BME280;41218;55.700;38.270;2023-04-19T00:49:33;100791.72;;;8.57;46.05
55347;BME280;41218;55.700;38.270;2023-04-19T00:54:34;100780.56;;;8.54;46.31
55347;BME280;41218;55.700;38.270;2023-04-19T00:59:35;100787.69;;;8.55;46.26
55347;BME280;41218;55.700;38.270;2023-04-19T01:04:36;100783.47;;;8.57;46.08
55347;BME280;41218;55.700;38.270;2023-04-19T01:09:42;100786.22;;;8.57;46.37
55347;BME280;41218;55.700;38.270;2023-04-19T01:14:43;100793.34;;;8.58;46.05
55347;BME280;41218;55.700;38.270;2023-04-19T01:19:43;100791.25;;;8.55;45.86
55347;BME280;41218;55.700;38.270;2023-04-19T01:24:44;100786.09;;;8.54;46.01
55347;BME280;41218;55.700;38.270;2023-04-19T01:29:44;100791.25;;;8.55;46.06
55347;BME280;41218;55.700;38.270;2023-04-19T01:34:45;100792.41;;;8.54;46.27
55347;BME280;41218;55.700;38.270;2023-04-19T01:39:46;100796.63;;;8.52;45.57
55347;BME280;41218;55.700;38.270;2023-04-19T01:44:46;100789.00;;;8.49;45.73
55347;BME280;41218;55.700;38.270;2023-04-19T01:49:47;100788.06;;;8.45;45.62
55347;BME280;41218;55.700;38.270;2023-04-19T01:54:47;100787.75;;;8.37;45.81
55347;BME280;41218;55.700;38.270;2023-04-19T01:59:48;100783.19;;;8.33;45.59
55347;BME280;41218;55.700;38.270;2023-04-19T02:04:49;100796.81;;;8.29;45.54
55347;BME280;41218;55.700;38.270;2023-04-19T02:09:49;100785.69;;;8.26;45.66
55347;BME280;41218;55.700;38.270;2023-04-19T02:14:50;100776.44;;;8.13;45.58
55347;BME280;41218;55.700;38.270;2023-04-19T02:19:51;100790.69;;;8.23;45.62
55347;BME280;41218;55.700;38.270;2023-04-19T02:24:51;100797.00;;;8.24;45.64
55347;BME280;41218;55.700;38.270;2023-04-19T02:29:52;100793.78;;;8.22;45.46
55347;BME280;41218;55.700;38.270;2023-04-19T02:34:52;100800.28;;;8.17;45.89
55347;BME280;41218;55.700;38.270;2023-04-19T02:39:53;100791.22;;;8.08;45.77
55347;BME280;41218;55.700;38.270;2023-04-19T02:44:53;100805.31;;;8.15;45.68
55347;BME280;41218;55.700;38.270;2023-04-19T02:49:54;100797.53;;;8.17;45.82
55347;BME280;41218;55.700;38.270;2023-04-19T02:54:54;100802.19;;;8.17;45.70
55347;BME280;41218;55.700;38.270;2023-04-19T02:59:55;100808.66;;;8.21;45.78
55347;BME280;41218;55.700;38.270;2023-04-19T03:04:55;100805.31;;;8.15;45.49
55347;BME280;41218;55.700;38.270;2023-04-19T03:09:56;100809.81;;;8.20;45.76
55347;BME280;41218;55.700;38.270;2023-04-19T03:14:56;100815.34;;;8.20;45.36
55347;BME280;41218;55.700;38.270;2023-04-19T03:19:57;100798.66;;;8.16;45.67
55347;BME280;41218;55.700;38.270;2023-04-19T03:24:58;100815.81;;;8.22;45.42
55347;BME280;41218;55.700;38.270;2023-04-19T03:29:58;100806.41;;;8.23;45.41
55347;BME280;41218;55.700;38.270;2023-04-19T03:34:59;100805.91;;;8.21;45.62
55347;BME280;41218;55.700;38.270;2023-04-19T03:40:00;100815.81;;;8.22;45.34
55347;BME280;41218;55.700;38.270;2023-04-19T03:45:00;100819.84;;;8.25;45.10
55347;BME280;41218;55.700;38.270;2023-04-19T03:50:01;100811.41;;;8.21;45.25
55347;BME280;41218;55.700;38.270;2023-04-19T03:55:02;100819.84;;;8.25;45.20
55347;BME280;41218;55.700;38.270;2023-04-19T04:00:03;100825.69;;;8.32;45.36
55347;BME280;41218;55.700;38.270;2023-04-19T04:05:07;100829.06;;;8.37;45.03
55347;BME280;41218;55.700;38.270;2023-04-19T04:10:08;100831.47;;;8.39;45.16
55347;BME280;41218;55.700;38.270;2023-04-19T04:15:09;100827.59;;;8.40;45.07
55347;BME280;41218;55.700;38.270;2023-04-19T04:20:10;100836.00;;;8.52;44.79
55347;BME280;41218;55.700;38.270;2023-04-19T04:25:15;100832.47;;;8.52;44.61
55347;BME280;41218;55.700;38.270;2023-04-19T04:30:16;100822.88;;;8.58;45.06
55347;BME280;41218;55.700;38.270;2023-04-19T04:35:16;100827.84;;;8.65;44.46
55347;BME280;41218;55.700;38.270;2023-04-19T04:40:17;100831.06;;;8.75;44.77
55347;BME280;41218;55.700;38.270;2023-04-19T04:45:18;100826.78;;;8.87;44.62
55347;BME280;41218;55.700;38.270;2023-04-19T04:50:19;100834.69;;;8.97;44.75
55347;BME280;41218;55.700;38.270;2023-04-19T04:55:19;100840.28;;;9.09;44.61
55347;BME280;41218;55.700;38.270;2023-04-19T05:00:20;100839.91;;;9.19;44.45
55347;BME280;41218;55.700;38.270;2023-04-19T05:05:21;100836.69;;;9.38;44.53
55347;BME280;41218;55.700;38.270;2023-04-19T05:10:22;100840.88;;;9.45;44.44
55347;BME280;41218;55.700;38.270;2023-04-19T05:15:22;100850.25;;;9.52;44.29
55347;BME280;41218;55.700;38.270;2023-04-19T05:20:23;100846.59;;;9.60;44.15
55347;BME280;41218;55.700;38.270;2023-04-19T05:25:23;100846.00;;;9.76;44.12
55347;BME280;41218;55.700;38.270;2023-04-19T05:30:24;100853.78;;;9.95;44.26
55347;BME280;41218;55.700;38.270;2023-04-19T05:35:25;100852.72;;;10.08;43.71
55347;BME280;41218;55.700;38.270;2023-04-19T05:40:25;100857.13;;;10.21;43.81
55347;BME280;41218;55.700;38.270;2023-04-19T05:45:26;100846.59;;;10.36;43.71
55347;BME280;41218;55.700;38.270;2023-04-19T05:50:26;100850.22;;;10.49;43.58
55347;BME280;41218;55.700;38.270;2023-04-19T05:55:27;100864.19;;;10.65;43.49
55347;BME280;41218;55.700;38.270;2023-04-19T06:00:27;100860.72;;;10.80;43.37
55347;BME280;41218;55.700;38.270;2023-04-19T06:05:28;100862.59;;;10.88;43.07
55347;BME280;41218;55.700;38.270;2023-04-19T06:10:28;100857.88;;;11.01;42.63
55347;BME280;41218;55.700;38.270;2023-04-19T06:15:29;100861.19;;;11.19;42.46
55347;BME280;41218;55.700;38.270;2023-04-19T06:20:30;100868.47;;;11.36;41.75
55347;BME280;41218;55.700;38.270;2023-04-19T06:25:31;100863.72;;;11.36;41.54
55347;BME280;41218;55.700;38.270;2023-04-19T06:30:31;100867.28;;;11.37;41.18
55347;BME280;41218;55.700;38.270;2023-04-19T06:35:32;100855.53;;;11.40;41.09
55347;BME280;41218;55.700;38.270;2023-04-19T06:40:32;100872.00;;;11.61;40.54
55347;BME280;41218;55.700;38.270;2023-04-19T06:45:33;100877.50;;;11.73;40.18
55347;BME280;41218;55.700;38.270;2023-04-19T06:50:34;100850.72;;;11.77;39.86
55347;BME280;41218;55.700;38.270;2023-04-19T06:55:34;100859.97;;;12.10;39.73
55347;BME280;41218;55.700;38.270;2023-04-19T07:00:35;100858.16;;;12.30;39.19
55347;BME280;41218;55.700;38.270;2023-04-19T07:05:36;100844.50;;;12.37;38.67
55347;BME280;41218;55.700;38.270;2023-04-19T07:10:37;100853.47;;;12.62;38.53
55347;BME280;41218;55.700;38.270;2023-04-19T07:15:37;100862.25;;;12.80;38.31
55347;BME280;41218;55.700;38.270;2023-04-19T07:20:38;100847.09;;;12.93;37.66
55347;BME280;41218;55.700;38.270;2023-04-19T07:25:38;100852.97;;;13.08;37.29
55347;BME280;41218;55.700;38.270;2023-04-19T07:30:39;100852.16;;;13.23;37.27
55347;BME280;41218;55.700;38.270;2023-04-19T07:35:39;100850.53;;;13.38;36.19
55347;BME280;41218;55.700;38.270;2023-04-19T07:40:40;100842.03;;;13.47;36.38
55347;BME280;41218;55.700;38.270;2023-04-19T07:45:40;100847.91;;;13.61;36.22
55347;BME280;41218;55.700;38.270;2023-04-19T07:50:41;100838.25;;;13.74;36.19
55347;BME280;41218;55.700;38.270;2023-04-19T07:55:41;100843.59;;;13.83;36.26
55347;BME280;41218;55.700;38.270;2023-04-19T08:00:42;100846.16;;;13.92;36.10
55347;BME280;41218;55.700;38.270;2023-04-19T08:05:43;100851.47;;;14.00;36.13
55347;BME280;41218;55.700;38.270;2023-04-19T08:10:43;100848.19;;;14.14;35.78
55347;BME280;41218;55.700;38.270;2023-04-19T08:15:45;100844.72;;;14.21;35.05
55347;BME280;41218;55.700;38.270;2023-04-19T08:20:46;100840.25;;;14.36;35.04
55347;BME280;41218;55.700;38.270;2023-04-19T08:25:49;100839.22;;;14.44;34.43
55347;BME280;41218;55.700;38.270;2023-04-19T08:30:50;100843.72;;;14.52;34.63
55347;BME280;41218;55.700;38.270;2023-04-19T08:35:50;100845.56;;;14.64;34.58
55347;BME280;41218;55.700;38.270;2023-04-19T08:40:52;100831.03;;;14.74;34.22
55347;BME280;41218;55.700;38.270;2023-04-19T08:45:55;100836.34;;;14.83;34.04
55347;BME280;41218;55.700;38.270;2023-04-19T08:50:56;100820.97;;;14.93;34.21
55347;BME280;41218;55.700;38.270;2023-04-19T08:55:59;100832.66;;;15.02;33.79
55347;BME280;41218;55.700;38.270;2023-04-19T09:01:03;100825.16;;;15.06;33.51
55347;BME280;41218;55.700;38.270;2023-04-19T09:06:04;100815.72;;;15.14;33.54
55347;BME280;41218;55.700;38.270;2023-04-19T09:11:04;100813.22;;;15.32;33.39
55347;BME280;41218;55.700;38.270;2023-04-19T09:16:05;100797.44;;;15.43;33.14
55347;BME280;41218;55.700;38.270;2023-04-19T09:21:07;100797.59;;;15.54;33.05
55347;BME280;41218;55.700;38.270;2023-04-19T09:26:07;100790.91;;;15.62;32.59
55347;BME280;41218;55.700;38.270;2023-04-19T09:31:11;100791.53;;;15.75;32.34
55347;BME280;41218;55.700;38.270;2023-04-19T09:36:29;100781.66;;;15.85;31.72
55347;BME280;41218;55.700;38.270;2023-04-19T09:41:30;100780.56;;;15.93;32.16
55347;BME280;41218;55.700;38.270;2023-04-19T09:46:34;100782.75;;;16.11;31.96
55347;BME280;41218;55.700;38.270;2023-04-19T09:51:40;100775.69;;;16.20;31.35
55347;BME280;41218;55.700;38.270;2023-04-19T09:56:40;100769.72;;;16.22;31.98
55347;BME280;41218;55.700;38.270;2023-04-19T10:01:47;100778.19;;;16.33;31.62
55347;BME280;41218;55.700;38.270;2023-04-19T10:06:49;100774.19;;;16.34;31.56
55347;BME280;41218;55.700;38.270;2023-04-19T10:11:52;100769.88;;;16.40;31.67
55347;BME280;41218;55.700;38.270;2023-04-19T10:16:55;100769.97;;;16.51;31.26
55347;BME280;41218;55.700;38.270;2023-04-19T10:21:55;100764.88;;;16.63;31.39
55347;BME280;41218;55.700;38.270;2023-04-19T10:27:12;100773.72;;;16.69;30.65
55347;BME280;41218;55.700;38.270;2023-04-19T10:32:13;100758.91;;;16.61;30.66
55347;BME280;41218;55.700;38.270;2023-04-19T10:37:13;100751.81;;;16.75;31.05
55347;BME280;41218;55.700;38.270;2023-04-19T10:42:14;100751.41;;;16.73;30.65
55347;BME280;41218;55.700;38.270;2023-04-19T10:47:41;100747.88;;;16.79;30.29
55347;BME280;41218;55.700;38.270;2023-04-19T10:52:42;100744.75;;;16.88;30.57
55347;BME280;41218;55.700;38.270;2023-04-19T10:58:01;100749.25;;;17.04;30.82
55347;BME280;41218;55.700;38.270;2023-04-19T11:08:43;100736.44;;;16.95;29.71
55347;BME280;41218;55.700;38.270;2023-04-19T11:13:45;100738.50;;;17.06;29.30
55347;BME280;41218;55.700;38.270;2023-04-19T11:18:46;100726.88;;;17.00;29.38
55347;BME280;41218;55.700;38.270;2023-04-19T11:23:46;100724.13;;;17.11;29.72
55347;BME280;41218;55.700;38.270;2023-04-19T11:28:48;100725.25;;;16.99;29.35
55347;BME280;41218;55.700;38.270;2023-04-19T11:33:49;100721.34;;;17.07;29.73
55347;BME280;41218;55.700;38.270;2023-04-19T11:38:52;100712.88;;;16.96;28.74
55347;BME280;41218;55.700;38.270;2023-04-19T11:43:52;100720.47;;;16.96;28.90
55347;BME280;41218;55.700;38.270;2023-04-19T11:48:53;100717.00;;;17.13;29.00
55347;BME280;41218;55.700;38.270;2023-04-19T11:53:54;100707.03;;;17.16;28.83
55347;BME280;41218;55.700;38.270;2023-04-19T11:58:56;100712.22;;;17.17;29.04
55347;BME280;41218;55.700;38.270;2023-04-19T12:03:56;100710.16;;;17.04;29.57
55347;BME280;41218;55.700;38.270;2023-04-19T12:08:57;100701.28;;;16.87;29.00
55347;BME280;41218;55.700;38.270;2023-04-19T12:14:14;100692.91;;;16.91;28.61
55347;BME280;41218;55.700;38.270;2023-04-19T12:19:16;100693.78;;;17.02;28.92
55347;BME280;41218;55.700;38.270;2023-04-19T12:24:17;100693.41;;;17.07;28.84
55347;BME280;41218;55.700;38.270;2023-04-19T12:29:18;100694.28;;;17.22;29.01
55347;BME280;41218;55.700;38.270;2023-04-19T12:34:19;100685.84;;;17.15;28.22
55347;BME280;41218;55.700;38.270;2023-04-19T12:39:21;100684.19;;;17.03;28.10
55347;BME280;41218;55.700;38.270;2023-04-19T12:44:22;100693.38;;;17.00;28.27
55347;BME280;41218;55.700;38.270;2023-04-19T12:49:23;100676.69;;;17.18;28.74
55347;BME280;41218;55.700;38.270;2023-04-19T12:54:23;100683.06;;;17.15;28.13
55347;BME280;41218;55.700;38.270;2023-04-19T12:59:24;100679.84;;;17.13;28.80
55347;BME280;41218;55.700;38.270;2023-04-19T13:04:25;100673.06;;;17.10;28.15
55347;BME280;41218;55.700;38.270;2023-04-19T13:09:26;100674.34;;;17.24;28.18
55347;BME280;41218;55.700;38.270;2023-04-19T13:14:27;100666.75;;;17.31;27.78
55347;BME280;41218;55.700;38.270;2023-04-19T13:19:28;100669.59;;;17.38;27.49
55347;BME280;41218;55.700;38.270;2023-04-19T13:24:28;100669.66;;;17.56;27.75
55347;BME280;41218;55.700;38.270;2023-04-19T13:29:29;100668.00;;;17.45;27.49
55347;BME280;41218;55.700;38.270;2023-04-19T13:34:29;100671.66;;;17.56;27.82
55347;BME280;41218;55.700;38.270;2023-04-19T13:39:30;100664.03;;;17.49;27.48
55347;BME280;41218;55.700;38.270;2023-04-19T13:44:30;100671.66;;;17.67;27.58
55347;BME280;41218;55.700;38.270;2023-04-19T13:49:31;100676.84;;;17.61;27.15
55347;BME280;41218;55.700;38.270;2023-04-19T13:54:31;100675.66;;;17.69;27.07
55347;BME280;41218;55.700;38.270;2023-04-19T13:59:32;100688.00;;;17.57;27.06
55347;BME280;41218;55.700;38.270;2023-04-19T14:04:32;100678.81;;;17.57;27.29
55347;BME280;41218;55.700;38.270;2023-04-19T14:09:33;100673.13;;;17.25;27.24
55347;BME280;41218;55.700;38.270;2023-04-19T14:14:33;100673.09;;;17.14;27.15
55347;BME280;41218;55.700;38.270;2023-04-19T14:19:34;100674.69;;;17.15;27.23
55347;BME280;41218;55.700;38.270;2023-04-19T14:24:34;100684.13;;;16.92;27.19
55347;BME280;41218;55.700;38.270;2023-04-19T14:29:34;100678.59;;;16.96;27.21
55347;BME280;41218;55.700;38.270;2023-04-19T14:34:35;100672.91;;;16.81;27.42
55347;BME280;41218;55.700;38.270;2023-04-19T14:39:35;100675.22;;;16.72;27.31
55347;BME280;41218;55.700;38.270;2023-04-19T14:44:36;100681.25;;;16.78;27.90
55347;BME280;41218;55.700;38.270;2023-04-19T14:49:36;100673.59;;;16.68;27.65
55347;BME280;41218;55.700;38.270;2023-04-19T14:54:37;100664.41;;;16.63;27.55
55347;BME280;41218;55.700;38.270;2023-04-19T14:59:37;100672.44;;;16.69;27.67
55347;BME280;41218;55.700;38.270;2023-04-19T15:04:38;100662.31;;;16.50;27.54
55347;BME280;41218;55.700;38.270;2023-04-19T15:09:38;100663.44;;;16.41;27.98
55347;BME280;41218;55.700;38.270;2023-04-19T15:14:40;100664.59;;;16.33;27.68
55347;BME280;41218;55.700;38.270;2023-04-19T15:19:40;100665.03;;;16.39;27.53
55347;BME280;41218;55.700;38.270;2023-04-19T15:24:41;100656.16;;;16.22;27.91
55347;BME280;41218;55.700;38.270;2023-04-19T15:29:41;100654.53;;;16.21;28.28
55347;BME280;41218;55.700;38.270;2023-04-19T15:34:42;100658.41;;;16.06;28.53
55347;BME280;41218;55.700;38.270;2023-04-19T15:39:42;100656.75;;;15.98;28.32
55347;BME280;41218;55.700;38.270;2023-04-19T15:44:43;100659.97;;;16.03;28.60
55347;BME280;41218;55.700;38.270;2023-04-19T15:49:43;100666.56;;;15.85;28.85
55347;BME280;41218;55.700;38.270;2023-04-19T15:54:46;100657.25;;;15.70;29.34
55347;BME280;41218;55.700;38.270;2023-04-19T15:59:48;100663.94;;;15.61;29.65
55347;BME280;41218;55.700;38.270;2023-04-19T16:04:48;100663.47;;;15.56;30.34
55347;BME280;41218;55.700;38.270;2023-04-19T16:09:49;100661.31;;;15.42;30.74
55347;BME280;41218;55.700;38.270;2023-04-19T16:14:49;100671.09;;;15.29;31.04
55347;BME280;41218;55.700;38.270;2023-04-19T16:19:50;100664.56;;;15.14;31.65
55347;BME280;41218;55.700;38.270;2023-04-19T16:24:50;100675.16;;;15.01;32.02
55347;BME280;41218;55.700;38.270;2023-04-19T16:29:51;100673.28;;;14.82;32.27
55347;BME280;41218;55.700;38.270;2023-04-19T16:34:51;100672.28;;;14.67;32.65
55347;BME280;41218;55.700;38.270;2023-04-19T16:39:52;100676.44;;;14.54;32.87
55347;BME280;41218;55.700;38.270;2023-04-19T16:44:52;100678.13;;;14.35;33.23
55347;BME280;41218;55.700;38.270;2023-04-19T16:49:53;100678.53;;;14.11;33.64
55347;BME280;41218;55.700;38.270;2023-04-19T16:54:53;100672.66;;;13.93;33.97
55347;BME280;41218;55.700;38.270;2023-04-19T16:59:54;100679.56;;;13.79;34.31
55347;BME280;41218;55.700;38.270;2023-04-19T17:04:55;100684.44;;;13.63;34.67
55347;BME280;41218;55.700;38.270;2023-04-19T17:09:55;100681.22;;;13.41;34.87
55347;BME280;41218;55.700;38.270;2023-04-19T17:14:58;100680.03;;;13.23;35.16
55347;BME280;41218;55.700;38.270;2023-04-19T17:19:58;100685.66;;;13.07;35.35
55347;BME280;41218;55.700;38.270;2023-04-19T17:24:59;100683.50;;;12.81;35.37
55347;BME280;41218;55.700;38.270;2023-04-19T17:29:59;100686.47;;;12.72;35.77
55347;BME280;41218;55.700;38.270;2023-04-19T17:35:00;100679.72;;;12.54;35.84
55347;BME280;41218;55.700;38.270;2023-04-19T17:40:01;100678.94;;;12.37;36.07
55347;BME280;41218;55.700;38.270;2023-04-19T17:45:02;100681.63;;;12.18;36.56
55347;BME280;41218;55.700;38.270;2023-04-19T17:50:10;100684.78;;;12.00;36.77
55347;BME280;41218;55.700;38.270;2023-04-19T17:55:12;100685.53;;;11.85;36.72
55347;BME280;41218;55.700;38.270;2023-04-19T18:00:13;100682.81;;;11.73;36.80
55347;BME280;41218;55.700;38.270;2023-04-19T18:05:14;100684.75;;;11.56;36.92
55347;BME280;41218;55.700;38.270;2023-04-19T18:10:14;100682.03;;;11.44;36.97
55347;BME280;41218;55.700;38.270;2023-04-19T18:15:15;100686.28;;;11.26;37.41
55347;BME280;41218;55.700;38.270;2023-04-19T18:20:17;100671.69;;;11.00;37.61
55347;BME280;41218;55.700;38.270;2023-04-19T18:25:18;100679.13;;;10.84;37.90
55347;BME280;41218;55.700;38.270;2023-04-19T18:30:18;100678.81;;;10.73;37.74
55347;BME280;41218;55.700;38.270;2023-04-19T18:35:19;100679.63;;;10.61;37.83
55347;BME280;41218;55.700;38.270;2023-04-19T18:40:21;100682.28;;;10.46;38.04
55347;BME280;41218;55.700;38.270;2023-04-19T18:45:21;100667.75;;;10.24;38.20
55347;BME280;41218;55.700;38.270;2023-04-19T18:50:22;100677.06;;;10.19;38.30
55347;BME280;41218;55.700;38.270;2023-04-19T18:55:23;100674.41;;;10.11;38.47
55347;BME280;41218;55.700;38.270;2023-04-19T19:00:23;100667.25;;;9.97;38.57
55347;BME280;41218;55.700;38.270;2023-04-19T19:05:24;100680.84;;;9.90;38.86
55347;BME280;41218;55.700;38.270;2023-04-19T19:10:25;100680.47;;;9.79;38.60
55347;BME280;41218;55.700;38.270;2023-04-19T19:15:25;100678.81;;;9.66;38.74
55347;BME280;41218;55.700;38.270;2023-04-19T19:20:26;100675.56;;;9.52;38.99
55347;BME280;41218;55.700;38.270;2023-04-19T19:25:26;100673.78;;;9.35;38.94
55347;BME280;41218;55.700;38.270;2023-04-19T19:30:27;100670.03;;;9.18;39.44
55347;BME280;41218;55.700;38.270;2023-04-19T19:35:30;100667.56;;;9.05;39.49
55347;BME280;41218;55.700;38.270;2023-04-19T19:40:31;100675.41;;;8.94;39.57
55347;BME280;41218;55.700;38.270;2023-04-19T19:45:31;100667.06;;;8.81;39.94
55347;BME280;41218;55.700;38.270;2023-04-19T19:50:32;100660.22;;;8.67;39.86
55347;BME280;41218;55.700;38.270;2023-04-19T19:55:32;100657.53;;;8.58;39.65
55347;BME280;41218;55.700;38.270;2023-04-19T20:00:33;100661.63;;;8.52;40.01
55347;BME280;41218;55.700;38.270;2023-04-19T20:05:33;100657.13;;;8.38;40.20
55347;BME280;41218;55.700;38.270;2023-04-19T20:10:35;100655.38;;;8.25;40.55
55347;BME280;41218;55.700;38.270;2023-04-19T20:15:36;100651.09;;;8.15;40.55
55347;BME280;41218;55.700;38.270;2023-04-19T20:20:37;100659.72;;;8.05;40.59
55347;BME280;41218;55.700;38.270;2023-04-19T20:25:38;100656.97;;;7.96;40.55
55347;BME280;41218;55.700;38.270;2023-04-19T20:30:38;100647.13;;;7.87;40.71
55347;BME280;41218;55.700;38.270;2023-04-19T20:35:39;100649.94;;;7.78;41.02
55347;BME280;41218;55.700;38.270;2023-04-19T20:40:41;100648.50;;;7.72;41.34
55347;BME280;41218;55.700;38.270;2023-04-19T20:45:43;100648.03;;;7.61;41.23
55347;BME280;41218;55.700;38.270;2023-04-19T20:50:43;100640.78;;;7.48;41.50
55347;BME280;41218;55.700;38.270;2023-04-19T20:55:44;100648.41;;;7.42;41.55
55347;BME280;41218;55.700;38.270;2023-04-19T21:00:44;100643.09;;;7.28;41.78
55347;BME280;41218;55.700;38.270;2023-04-19T21:05:45;100632.75;;;7.25;41.97
55347;BME280;41218;55.700;38.270;2023-04-19T21:10:46;100643.09;;;7.19;42.22
55347;BME280;41218;55.700;38.270;2023-04-19T21:15:46;100641.03;;;7.08;42.03
55347;BME280;41218;55.700;38.270;2023-04-19T21:20:47;100637.28;;;6.95;42.43
55347;BME280;41218;55.700;38.270;2023-04-19T21:25:48;100628.56;;;6.84;42.50
55347;BME280;41218;55.700;38.270;2023-04-19T21:30:48;100628.56;;;6.75;42.41
55347;BME280;41218;55.700;38.270;2023-04-19T21:35:50;100628.88;;;6.74;42.45
55347;BME280;41218;55.700;38.270;2023-04-19T21:40:50;100628.22;;;6.68;42.63
55347;BME280;41218;55.700;38.270;2023-04-19T21:45:51;100629.84;;;6.60;42.75
55347;BME280;41218;55.700;38.270;2023-04-19T21:50:51;100618.53;;;6.53;42.70
55347;BME280;41218;55.700;38.270;2023-04-19T21:55:52;100617.06;;;6.47;42.96
55347;BME280;41218;55.700;38.270;2023-04-19T22:00:53;100615.91;;;6.39;43.17
55347;BME280;41218;55.700;38.270;2023-04-19T22:05:53;100614.94;;;6.27;43.25
55347;BME280;41218;55.700;38.270;2023-04-19T22:10:57;100615.38;;;6.20;43.70
55347;BME280;41218;55.700;38.270;2023-04-19T22:15:59;100621.34;;;6.13;43.65
55347;BME280;41218;55.700;38.270;2023-04-19T22:21:01;100620.69;;;6.08;43.86
55347;BME280;41218;55.700;38.270;2023-04-19T22:26:02;100607.75;;;5.99;43.66
55347;BME280;41218;55.700;38.270;2023-04-19T22:31:03;100609.19;;;5.97;43.92
55347;BME280;41218;55.700;38.270;2023-04-19T22:36:04;100608.00;;;5.89;44.51
55347;BME280;41218;55.700;38.270;2023-04-19T22:41:05;100594.75;;;5.82;44.33
55347;BME280;41218;55.700;38.270;2023-04-19T22:46:06;100582.78;;;5.70;44.38
55347;BME280;41218;55.700;38.270;2023-04-19T22:51:06;100588.56;;;5.68;44.61
55347;BME280;41218;55.700;38.270;2023-04-19T22:56:07;100583.84;;;5.60;44.84
55347;BME280;41218;55.700;38.270;2023-04-19T23:01:07;100582.88;;;5.56;45.03
55347;BME280;41218;55.700;38.270;2023-04-19T23:06:08;100581.38;;;5.50;45.35
55347;BME280;41218;55.700;38.270;2023-04-19T23:11:08;100572.00;;;5.42;45.74
55347;BME280;41218;55.700;38.270;2023-04-19T23:16:10;100564.72;;;5.37;45.56
55347;BME280;41218;55.700;38.270;2023-04-19T23:21:11;100577.09;;;5.35;45.51
55347;BME280;41218;55.700;38.270;2023-04-19T23:26:11;100578.22;;;5.34;45.72
55347;BME280;41218;55.700;38.270;2023-04-19T23:31:12;100592.44;;;5.36;45.60
55347;BME280;41218;55.700;38.270;2023-04-19T23:36:12;100579.69;;;5.31;45.63
55347;BME280;41218;55.700;38.270;2023-04-19T23:41:13;100574.63;;;5.25;45.86
55347;BME280;41218;55.700;38.270;2023-04-19T23:46:13;100571.19;;;5.19;45.93
55347;BME280;41218;55.700;38.270;2023-04-19T23:51:14;100576.03;;;5.13;45.88
55347;BME280;41218;55.700;38.270;2023-04-19T23:56:15;100576.13;;;5.08;46.09
